createdAt,value
2019-05-20T00:00:24.693Z,3.07
2019-05-20T00:02:52.758Z,3.10
2019-05-20T00:05:20.745Z,3.40
2019-05-20T00:07:49.101Z,3.47
2019-05-20T00:10:19.109Z,3.43
2019-05-20T00:12:47.585Z,3.33
2019-05-20T00:15:15.589Z,3.20
2019-05-20T00:17:44.490Z,3.40
2019-05-20T00:20:12.717Z,3.07
2019-05-20T00:22:40.871Z,2.97
2019-05-20T00:25:10.779Z,3.00
2019-05-20T00:27:38.862Z,3.07
2019-05-20T00:30:07.191Z,2.80
2019-05-20T00:32:41.359Z,2.83
2019-05-20T00:35:05.705Z,3.33
2019-05-20T00:37:33.696Z,3.30
2019-05-20T00:40:01.730Z,2.57
2019-05-20T00:42:29.744Z,3.10
2019-05-20T00:44:58.111Z,2.87
2019-05-20T00:47:26.435Z,3.07
2019-05-20T00:49:54.483Z,2.80
2019-05-20T00:52:22.980Z,2.47
2019-05-20T00:54:51.509Z,3.20
2019-05-20T00:57:19.507Z,2.63
2019-05-20T00:59:47.702Z,3.50
2019-05-20T01:02:15.692Z,3.57
2019-05-20T01:04:44.054Z,2.80
2019-05-20T01:07:11.912Z,3.53
2019-05-20T01:09:39.823Z,3.20
2019-05-20T01:12:07.927Z,2.70
2019-05-20T01:14:36.067Z,3.40
2019-05-20T01:17:04.033Z,2.87
2019-05-20T01:19:32.327Z,3.63
2019-05-20T01:22:00.598Z,3.07
2019-05-20T01:24:28.574Z,3.20
2019-05-20T01:26:56.550Z,3.83
2019-05-20T01:29:24.629Z,3.47
2019-05-20T01:31:52.657Z,4.03
2019-05-20T01:34:20.770Z,3.73
2019-05-20T01:36:48.718Z,3.43
2019-05-20T01:39:16.744Z,3.00
2019-05-20T01:41:44.777Z,3.23
2019-05-20T01:44:12.848Z,3.40
2019-05-20T01:46:40.952Z,3.37
2019-05-20T01:49:09.281Z,3.50
2019-05-20T01:51:37.365Z,3.30
2019-05-20T01:54:05.488Z,4.00
2019-05-20T01:56:33.484Z,3.63
2019-05-20T01:59:01.344Z,3.37
2019-05-20T02:01:29.399Z,3.50
2019-05-20T02:03:57.474Z,3.87
2019-05-20T02:06:25.542Z,3.63
2019-05-20T02:08:53.527Z,4.30
2019-05-20T02:11:21.468Z,4.20
2019-05-20T02:14:11.498Z,4.30
2019-05-20T02:16:39.450Z,4.57
2019-05-20T02:19:07.432Z,4.27
2019-05-20T02:21:35.664Z,4.80
2019-05-20T02:24:03.888Z,4.53
2019-05-20T02:26:31.852Z,4.97
2019-05-20T02:29:00.120Z,6.00
2019-05-20T02:31:28.088Z,5.57
2019-05-20T02:33:55.992Z,5.97
2019-05-20T02:36:24.100Z,5.60
2019-05-20T02:38:52.182Z,5.60
2019-05-20T02:41:20.089Z,6.07
2019-05-20T02:43:48.437Z,7.00
2019-05-20T02:46:16.412Z,6.93
2019-05-20T02:48:44.579Z,6.13
2019-05-20T02:51:12.606Z,7.83
2019-05-20T02:53:40.685Z,7.40
2019-05-20T02:56:09.356Z,6.87
2019-05-20T02:58:37.438Z,6.70
2019-05-20T03:01:05.561Z,6.77
2019-05-20T03:03:33.679Z,7.07
2019-05-20T03:06:01.857Z,7.77
2019-05-20T03:08:29.794Z,7.57
2019-05-20T03:10:57.811Z,7.10
2019-05-20T03:13:25.815Z,8.17
2019-05-20T03:15:53.925Z,7.43
2019-05-20T03:18:22.105Z,9.37
2019-05-20T03:20:50.073Z,7.63
2019-05-20T03:23:18.160Z,8.60
2019-05-20T03:25:46.467Z,8.50
2019-05-20T03:28:14.434Z,8.70
2019-05-20T03:30:43.691Z,10.43
2019-05-20T03:33:11.943Z,8.50
2019-05-20T03:35:39.860Z,8.90
2019-05-20T03:38:07.824Z,10.33
2019-05-20T03:40:35.980Z,9.13
2019-05-20T03:43:04.092Z,9.10
2019-05-20T03:45:32.043Z,10.43
2019-05-20T03:48:00.240Z,10.20
2019-05-20T03:50:28.347Z,10.27
2019-05-20T03:52:56.686Z,10.93
2019-05-20T03:55:24.655Z,9.70
2019-05-20T03:57:52.669Z,10.13
2019-05-20T04:00:22.609Z,10.30
2019-05-20T04:02:50.504Z,11.47
2019-05-20T04:05:19.995Z,10.40
2019-05-20T04:07:50.433Z,10.20
2019-05-20T04:10:18.697Z,11.10
2019-05-20T04:12:49.220Z,10.63
2019-05-20T04:15:17.399Z,11.73
2019-05-20T04:17:45.580Z,11.13
2019-05-20T04:20:13.652Z,11.50
2019-05-20T04:22:41.680Z,12.40
2019-05-20T04:25:09.889Z,11.03
2019-05-20T04:27:37.968Z,12.20
2019-05-20T04:30:05.933Z,13.13
2019-05-20T04:32:34.092Z,11.53
2019-05-20T04:35:19.801Z,11.70
2019-05-20T04:37:31.833Z,11.77
2019-05-20T04:40:00.456Z,12.10
2019-05-20T04:42:28.735Z,12.43
2019-05-20T04:44:56.828Z,12.10
2019-05-20T04:47:24.835Z,12.30
2019-05-20T04:49:52.795Z,12.10
2019-05-20T04:52:20.758Z,13.50
2019-05-20T04:54:48.667Z,13.10
2019-05-20T04:57:16.564Z,12.50
2019-05-20T04:59:44.535Z,11.40
2019-05-20T05:02:12.453Z,12.23
2019-05-20T05:04:40.301Z,13.07
2019-05-20T05:07:08.418Z,11.97
2019-05-20T05:09:36.261Z,11.87
2019-05-20T05:12:04.475Z,13.83
2019-05-20T05:14:32.501Z,12.80
2019-05-20T05:17:00.408Z,12.73
2019-05-20T05:19:28.490Z,13.90
2019-05-20T05:21:56.395Z,13.53
2019-05-20T05:24:24.478Z,15.77
2019-05-20T05:26:52.355Z,13.23
2019-05-20T05:29:20.269Z,14.90
2019-05-20T05:31:48.219Z,14.10
2019-05-20T05:34:16.186Z,12.90
2019-05-20T05:36:44.158Z,13.47
2019-05-20T05:39:12.223Z,14.40
2019-05-20T05:41:48.266Z,12.80
2019-05-20T05:44:16.248Z,14.67
2019-05-20T05:46:56.387Z,11.97
2019-05-20T05:49:24.817Z,13.00
2019-05-20T05:51:52.850Z,13.17
2019-05-20T05:54:20.831Z,15.40
2019-05-20T05:56:48.806Z,13.10
2019-05-20T05:59:16.904Z,13.50
2019-05-20T06:01:45.104Z,15.23
2019-05-20T06:04:13.136Z,14.37
2019-05-20T06:07:05.105Z,15.00
2019-05-20T06:09:30.892Z,16.00
2019-05-20T06:11:58.983Z,15.13
2019-05-20T06:14:35.696Z,14.63
2019-05-20T06:17:14.476Z,15.10
2019-05-20T06:19:45.249Z,15.83
2019-05-20T06:22:14.612Z,15.13
2019-05-20T06:24:42.735Z,18.07
2019-05-20T06:27:10.722Z,14.27
2019-05-20T06:29:48.088Z,14.10
2019-05-20T06:32:16.115Z,15.83
2019-05-20T06:34:44.072Z,15.30
2019-05-20T06:37:30.489Z,14.03
2019-05-20T06:39:58.833Z,13.87
2019-05-20T06:42:27.001Z,15.17
2019-05-20T06:44:57.308Z,14.70
2019-05-20T06:47:24.793Z,13.03
2019-05-20T06:49:52.743Z,14.57
2019-05-20T06:52:34.953Z,13.90
2019-05-20T06:54:50.469Z,12.90
2019-05-20T06:57:20.395Z,13.93
2019-05-20T06:59:48.807Z,15.23
2019-05-20T07:02:16.656Z,12.90
2019-05-20T07:04:44.590Z,12.50
2019-05-20T07:07:20.916Z,12.00
2019-05-20T07:09:42.087Z,14.30
2019-05-20T07:12:10.039Z,13.60
2019-05-20T07:14:37.870Z,11.40
2019-05-20T07:17:05.770Z,12.77
2019-05-20T07:19:33.735Z,12.10
2019-05-20T07:22:01.611Z,13.77
2019-05-20T07:24:29.659Z,11.73
2019-05-20T07:26:57.583Z,11.63
2019-05-20T07:29:44.870Z,12.07
2019-05-20T07:32:14.101Z,12.43
2019-05-20T07:34:50.397Z,12.77
2019-05-20T07:37:22.003Z,13.20
2019-05-20T07:39:53.034Z,13.27
2019-05-20T07:42:26.356Z,12.70
2019-05-20T07:44:54.449Z,12.90
2019-05-20T07:47:22.520Z,13.83
2019-05-20T07:49:53.616Z,13.23
2019-05-20T07:52:27.322Z,11.23
2019-05-20T07:54:56.102Z,14.20
2019-05-20T07:57:26.899Z,12.50
2019-05-20T07:59:55.401Z,13.57
2019-05-20T08:02:23.783Z,13.87
2019-05-20T08:04:51.767Z,15.57
2019-05-20T08:07:27.876Z,11.77
2019-05-20T08:09:49.247Z,13.30
2019-05-20T08:12:17.199Z,14.27
2019-05-20T08:14:47.855Z,11.40
2019-05-20T08:17:15.861Z,12.73
2019-05-20T08:19:43.758Z,14.10
2019-05-20T08:22:11.764Z,12.00
2019-05-20T08:24:39.663Z,12.43
2019-05-20T08:27:07.608Z,12.10
2019-05-20T08:29:37.980Z,12.37
2019-05-20T08:32:05.905Z,10.37
2019-05-20T08:34:34.152Z,12.37
2019-05-20T08:37:02.469Z,13.00
2019-05-20T08:39:30.379Z,14.03
2019-05-20T08:41:58.345Z,14.93
2019-05-20T08:44:26.312Z,13.67
2019-05-20T08:46:54.251Z,13.83
2019-05-20T08:49:22.176Z,14.37
2019-05-20T08:51:50.215Z,12.10
2019-05-20T08:54:18.246Z,13.43
2019-05-20T08:56:49.258Z,11.93
2019-05-20T08:59:15.938Z,10.90
2019-05-20T09:01:43.920Z,13.20
2019-05-20T09:04:11.883Z,13.83
2019-05-20T09:06:39.870Z,11.60
2019-05-20T09:09:11.789Z,12.13
2019-05-20T09:11:37.447Z,11.13
2019-05-20T09:14:05.326Z,13.57
2019-05-20T09:16:33.374Z,13.20
2019-05-20T09:19:01.295Z,12.70
2019-05-20T09:21:29.313Z,12.30
2019-05-20T09:23:57.294Z,14.20
2019-05-20T09:26:25.328Z,11.73
2019-05-20T09:28:53.448Z,14.30
2019-05-20T09:31:21.594Z,13.13
2019-05-20T09:33:49.695Z,11.83
2019-05-20T09:36:17.552Z,11.97
2019-05-20T09:38:45.516Z,13.50
2019-05-20T09:41:13.453Z,13.90
2019-05-20T09:43:41.522Z,14.80
2019-05-20T09:46:09.449Z,12.80
2019-05-20T09:48:37.350Z,12.00
2019-05-20T09:51:05.389Z,9.03
2019-05-20T09:53:33.353Z,10.63
2019-05-20T09:56:01.307Z,10.03
2019-05-20T09:58:29.182Z,11.20
2019-05-20T10:00:57.123Z,13.17
2019-05-20T10:03:25.421Z,12.07
2019-05-20T10:05:53.403Z,11.13
2019-05-20T10:08:36.570Z,13.07
2019-05-20T10:10:50.960Z,12.83
2019-05-20T10:13:18.969Z,13.10
2019-05-20T10:15:47.006Z,14.47
2019-05-20T10:18:14.912Z,14.93
2019-05-20T10:20:42.951Z,13.60
2019-05-20T10:23:15.424Z,11.63
2019-05-20T10:25:40.657Z,12.30
2019-05-20T10:28:08.527Z,12.07
2019-05-20T10:30:36.457Z,12.13
2019-05-20T10:33:09.254Z,11.43
2019-05-20T10:35:34.299Z,12.97
2019-05-20T10:38:02.277Z,14.40
2019-05-20T10:40:30.283Z,15.60
2019-05-20T10:42:58.325Z,13.30
2019-05-20T10:45:26.309Z,12.80
2019-05-20T10:47:54.317Z,11.90
2019-05-20T10:50:22.665Z,14.67
2019-05-20T10:52:50.731Z,13.07
2019-05-20T10:55:18.814Z,11.13
2019-05-20T10:57:46.769Z,12.77
2019-05-20T11:00:14.847Z,12.97
2019-05-20T11:02:42.825Z,12.27
2019-05-20T11:05:10.878Z,13.13
2019-05-20T11:07:39.242Z,11.30
2019-05-20T11:10:07.642Z,13.77
2019-05-20T11:12:35.561Z,12.70
2019-05-20T11:15:04.077Z,14.20
2019-05-20T11:17:32.115Z,13.83
2019-05-20T11:20:00.082Z,14.13
2019-05-20T11:22:28.097Z,12.87
2019-05-20T11:24:56.249Z,12.77
2019-05-20T11:27:24.225Z,13.80
2019-05-20T11:29:52.284Z,14.40
2019-05-20T11:32:20.508Z,13.00
2019-05-20T11:34:48.732Z,13.10
2019-05-20T11:37:16.640Z,13.50
2019-05-20T11:39:44.623Z,12.57
2019-05-20T11:42:12.653Z,13.67
2019-05-20T11:44:40.733Z,12.10
2019-05-20T11:47:08.814Z,13.97
2019-05-20T11:49:36.766Z,15.97
2019-05-20T11:52:05.033Z,12.13
2019-05-20T11:54:33.261Z,14.20
2019-05-20T11:57:01.243Z,16.23
2019-05-20T11:59:29.365Z,15.67
2019-05-20T12:01:57.628Z,15.37
2019-05-20T12:04:25.593Z,16.63
2019-05-20T12:06:53.596Z,16.13
2019-05-20T12:09:21.598Z,17.33
2019-05-20T12:11:49.613Z,14.50
2019-05-20T12:14:17.987Z,17.67
2019-05-20T12:16:46.411Z,18.63
2019-05-20T12:19:14.899Z,16.77
2019-05-20T12:21:43.567Z,15.97
2019-05-20T12:24:12.581Z,21.20
2019-05-20T12:26:40.814Z,17.20
2019-05-20T12:29:08.905Z,15.93
2019-05-20T12:31:36.845Z,16.40
2019-05-20T12:34:04.786Z,20.10
2019-05-20T12:36:32.713Z,15.87
2019-05-20T12:39:00.655Z,17.03
2019-05-20T12:41:28.783Z,20.00
2019-05-20T12:44:11.000Z,17.10
2019-05-20T12:46:26.862Z,18.27
2019-05-20T12:48:54.953Z,16.47
2019-05-20T12:51:23.111Z,15.83
2019-05-20T12:53:51.182Z,17.43
2019-05-20T12:56:21.008Z,15.57
2019-05-20T12:58:49.232Z,16.03
2019-05-20T13:01:17.381Z,18.80
2019-05-20T13:03:45.589Z,17.40
2019-05-20T13:06:13.639Z,15.67
2019-05-20T13:08:41.742Z,18.53
2019-05-20T13:11:09.800Z,21.30
2019-05-20T13:13:37.902Z,23.90
2019-05-20T13:16:06.516Z,21.10
2019-05-20T13:18:34.948Z,23.53
2019-05-20T13:21:04.019Z,21.90
2019-05-20T13:23:32.107Z,24.13
2019-05-20T13:26:00.099Z,25.60
2019-05-20T13:28:28.035Z,25.83
2019-05-20T13:30:56.258Z,25.60
2019-05-20T13:33:24.687Z,27.03
2019-05-20T13:35:52.630Z,26.27
2019-05-20T13:38:20.595Z,29.57
2019-05-20T13:40:49.220Z,29.63
2019-05-20T13:43:17.087Z,32.47
2019-05-20T13:45:47.908Z,34.47
2019-05-20T13:48:14.683Z,32.13
2019-05-20T13:50:42.895Z,33.00
2019-05-20T13:53:10.967Z,30.23
2019-05-20T13:55:38.914Z,30.60
2019-05-20T13:58:06.940Z,32.23
2019-05-20T14:00:34.921Z,32.60
2019-05-20T14:03:02.967Z,31.67
2019-05-20T14:05:31.049Z,31.13
2019-05-20T14:07:59.125Z,32.20
2019-05-20T14:10:27.212Z,33.70
2019-05-20T14:12:55.342Z,30.33
2019-05-20T14:15:23.357Z,33.10
2019-05-20T14:17:51.375Z,31.17
2019-05-20T14:20:19.392Z,34.10
2019-05-20T14:22:47.414Z,30.00
2019-05-20T14:25:15.648Z,33.70
2019-05-20T14:27:43.596Z,31.67
2019-05-20T14:30:11.668Z,29.40
2019-05-20T14:32:39.622Z,31.20
2019-05-20T14:35:07.650Z,33.07
2019-05-20T14:37:35.624Z,29.60
2019-05-20T14:40:03.678Z,33.77
2019-05-20T14:42:31.747Z,26.50
2019-05-20T14:44:59.677Z,30.60
2019-05-20T14:47:27.788Z,30.77
2019-05-20T14:49:55.870Z,31.10
2019-05-20T14:52:23.773Z,27.70
2019-05-20T14:54:51.752Z,25.27
2019-05-20T14:57:19.663Z,23.80
2019-05-20T14:59:47.725Z,24.83
2019-05-20T15:02:15.807Z,24.87
2019-05-20T15:04:43.827Z,24.60
2019-05-20T15:07:11.821Z,24.40
2019-05-20T15:09:40.063Z,28.30
2019-05-20T15:12:08.050Z,25.33
2019-05-20T15:14:36.747Z,26.47
2019-05-20T15:17:04.718Z,24.43
2019-05-20T15:19:32.783Z,23.30
2019-05-20T15:22:01.075Z,22.97
2019-05-20T15:24:29.222Z,19.30
2019-05-20T15:26:57.628Z,20.13
2019-05-20T15:29:28.470Z,20.50
2019-05-20T15:31:55.616Z,19.53
2019-05-20T15:34:26.629Z,17.40
2019-05-20T15:36:55.267Z,16.77
2019-05-20T15:39:23.311Z,17.00
2019-05-20T15:41:51.482Z,15.33
2019-05-20T15:44:19.620Z,15.47
2019-05-20T15:46:47.620Z,15.60
2019-05-20T15:49:15.652Z,17.07
2019-05-20T15:51:43.554Z,20.07
2019-05-20T15:54:11.495Z,16.70
2019-05-20T15:56:39.566Z,18.17
2019-05-20T15:59:07.610Z,18.10
2019-05-20T16:01:35.890Z,19.83
2019-05-20T16:04:04.554Z,20.90
2019-05-20T16:06:32.618Z,19.90
2019-05-20T16:09:00.644Z,17.37
2019-05-20T16:11:28.717Z,18.90
2019-05-20T16:13:56.726Z,17.57
2019-05-20T16:16:24.682Z,18.33
2019-05-20T16:18:52.844Z,17.47
2019-05-20T16:21:25.012Z,15.50
2019-05-20T16:23:54.002Z,14.53
2019-05-20T16:26:24.564Z,15.23
2019-05-20T16:28:52.569Z,14.27
2019-05-20T16:31:20.928Z,14.37
2019-05-20T16:33:48.987Z,15.00
2019-05-20T16:36:17.026Z,14.50
2019-05-20T16:38:45.180Z,14.17
2019-05-20T16:41:13.879Z,14.27
2019-05-20T16:43:41.988Z,13.80
2019-05-20T16:46:10.130Z,14.57
2019-05-20T16:48:38.083Z,14.03
2019-05-20T16:51:06.421Z,14.23
2019-05-20T16:53:34.591Z,17.77
2019-05-20T16:56:02.848Z,16.13
2019-05-20T16:58:31.029Z,14.80
2019-05-20T17:00:59.178Z,15.47
2019-05-20T17:03:28.424Z,16.00
2019-05-20T17:05:56.654Z,18.53
2019-05-20T17:08:58.223Z,15.70
2019-05-20T17:11:26.368Z,17.27
2019-05-20T17:13:56.256Z,17.30
2019-05-20T17:16:24.211Z,16.77
2019-05-20T17:18:52.208Z,18.67
2019-05-20T17:21:20.307Z,16.60
2019-05-20T17:23:48.361Z,17.20
2019-05-20T17:26:18.661Z,18.13
2019-05-20T17:28:46.665Z,18.40
2019-05-20T17:31:14.766Z,16.23
2019-05-20T17:33:42.806Z,17.93
2019-05-20T17:36:10.856Z,18.20
2019-05-20T17:38:38.860Z,16.43
2019-05-20T17:41:06.909Z,19.20
2019-05-20T17:43:34.879Z,17.87
2019-05-20T17:46:02.893Z,18.30
2019-05-20T17:48:30.878Z,17.83
2019-05-20T17:50:58.939Z,17.97
2019-05-20T17:53:26.908Z,18.53
2019-05-20T17:55:55.146Z,19.03
2019-05-20T17:58:23.719Z,19.30
2019-05-20T18:00:51.679Z,19.50
2019-05-20T18:03:22.047Z,18.97
2019-05-20T18:05:50.032Z,20.20
2019-05-20T18:08:18.003Z,20.43
2019-05-20T18:10:45.961Z,21.40
2019-05-20T18:13:14.025Z,21.33
2019-05-20T18:15:41.986Z,20.37
2019-05-20T18:18:09.910Z,19.80
2019-05-20T18:20:37.945Z,19.00
2019-05-20T18:23:05.970Z,21.70
2019-05-20T18:25:33.945Z,21.13
2019-05-20T18:28:02.251Z,19.07
2019-05-20T18:30:30.411Z,19.20
2019-05-20T18:32:58.380Z,18.77
2019-05-20T18:35:26.340Z,19.00
2019-05-20T18:37:54.469Z,19.27
2019-05-20T18:40:22.412Z,18.17
2019-05-20T18:42:50.404Z,17.03
2019-05-20T18:45:18.344Z,17.40
2019-05-20T18:47:46.297Z,16.70
2019-05-20T18:50:14.457Z,17.00
2019-05-20T18:52:42.495Z,17.23
2019-05-20T18:55:10.507Z,16.70
2019-05-20T18:57:38.445Z,17.37
2019-05-20T19:00:07.155Z,16.07
2019-05-20T19:02:35.323Z,17.40
2019-05-20T19:05:04.179Z,16.17
2019-05-20T19:07:32.212Z,13.97
2019-05-20T19:10:00.221Z,14.40
2019-05-20T19:12:28.248Z,16.37
2019-05-20T19:14:57.196Z,15.20
2019-05-20T19:17:25.431Z,13.73
2019-05-20T19:19:53.546Z,15.37
2019-05-20T19:22:21.981Z,14.37
2019-05-20T19:24:50.169Z,14.77
2019-05-20T19:27:18.318Z,13.37
2019-05-20T19:29:48.471Z,12.20
2019-05-20T19:32:16.863Z,13.23
2019-05-20T19:34:44.924Z,13.17
2019-05-20T19:37:13.954Z,13.40
2019-05-20T19:39:41.837Z,11.87
2019-05-20T19:42:11.087Z,13.30
2019-05-20T19:44:43.385Z,14.20
2019-05-20T19:47:11.733Z,14.97
2019-05-20T19:49:42.400Z,14.27
2019-05-20T19:52:10.828Z,13.43
2019-05-20T19:54:38.959Z,14.70
2019-05-20T19:57:07.820Z,13.83
2019-05-20T19:59:46.264Z,14.83
2019-05-20T20:02:17.568Z,15.00
2019-05-20T20:04:44.120Z,15.27
2019-05-20T20:07:12.111Z,15.03
2019-05-20T20:09:40.112Z,14.73
2019-05-20T20:12:12.324Z,15.90
2019-05-20T20:14:40.511Z,15.03
2019-05-20T20:17:08.937Z,14.10
2019-05-20T20:19:37.204Z,13.20
2019-05-20T20:22:05.620Z,13.97
2019-05-20T20:24:34.427Z,13.87
2019-05-20T20:27:02.568Z,13.93
2019-05-20T20:29:30.723Z,15.43
2019-05-20T20:31:58.928Z,15.70
2019-05-20T20:34:30.318Z,16.83
2019-05-20T20:36:58.464Z,16.87
2019-05-20T20:39:27.197Z,15.77
2019-05-20T20:41:55.609Z,18.13
2019-05-20T20:44:23.652Z,17.40
2019-05-20T20:46:51.981Z,17.83
2019-05-20T20:49:19.972Z,16.73
2019-05-20T20:51:47.873Z,16.10
2019-05-20T20:54:16.212Z,16.90
2019-05-20T20:56:44.258Z,14.90
2019-05-20T20:59:12.289Z,13.37
2019-05-20T21:01:40.839Z,14.73
2019-05-20T21:04:08.804Z,14.57
2019-05-20T21:06:37.156Z,13.03
2019-05-20T21:09:05.665Z,13.83
2019-05-20T21:11:34.095Z,12.97
2019-05-20T21:14:02.517Z,13.50
2019-05-20T21:16:30.694Z,15.17
2019-05-20T21:18:58.894Z,13.30
2019-05-20T21:21:27.070Z,13.67
2019-05-20T21:23:55.261Z,12.73
2019-05-20T21:26:23.392Z,13.80
2019-05-20T21:28:51.380Z,15.23
2019-05-20T21:31:19.271Z,14.10
2019-05-20T21:33:47.422Z,14.23
2019-05-20T21:36:15.395Z,13.00
2019-05-20T21:38:43.460Z,13.73
2019-05-20T21:41:11.445Z,14.50
2019-05-20T21:43:39.500Z,13.93
2019-05-20T21:46:07.886Z,14.73
2019-05-20T21:48:35.952Z,13.90
2019-05-20T21:51:03.883Z,16.93
2019-05-20T21:53:32.383Z,15.10
2019-05-20T21:56:00.518Z,14.93
2019-05-20T21:58:28.612Z,16.07
2019-05-20T22:00:57.010Z,19.30
2019-05-20T22:03:25.570Z,18.00
2019-05-20T22:05:53.769Z,19.13
2019-05-20T22:08:21.849Z,17.87
2019-05-20T22:10:49.944Z,18.33
2019-05-20T22:13:18.092Z,21.23
2019-05-20T22:15:46.241Z,19.97
2019-05-20T22:18:14.665Z,24.50
2019-05-20T22:20:44.715Z,24.33
2019-05-20T22:23:50.171Z,30.57
2019-05-20T22:26:18.511Z,29.67
2019-05-20T22:28:46.755Z,26.93
2019-05-20T22:31:15.145Z,28.37
2019-05-20T22:33:43.838Z,29.73
2019-05-20T22:36:11.925Z,35.03
2019-05-20T22:38:39.783Z,30.10
2019-05-20T22:41:07.990Z,30.40
2019-05-20T22:43:36.046Z,31.73
2019-05-20T22:46:04.194Z,33.00
2019-05-20T22:48:32.251Z,33.13
2019-05-20T22:51:00.335Z,35.20
2019-05-20T22:53:28.494Z,34.53
2019-05-20T22:55:56.572Z,34.93
2019-05-20T22:58:24.727Z,38.83
2019-05-20T23:00:52.930Z,33.20
2019-05-20T23:03:20.853Z,38.37
2019-05-20T23:05:48.970Z,38.17
2019-05-20T23:08:17.035Z,37.40
2019-05-20T23:10:44.983Z,36.87
2019-05-20T23:13:13.104Z,33.90
2019-05-20T23:15:41.229Z,31.83
2019-05-20T23:18:09.271Z,33.77
2019-05-20T23:20:37.522Z,33.97
2019-05-20T23:23:05.422Z,33.10
2019-05-20T23:25:33.409Z,34.33
2019-05-20T23:28:01.400Z,36.40
2019-05-20T23:30:29.393Z,32.40
2019-05-20T23:32:57.679Z,33.40
2019-05-20T23:35:25.779Z,32.23
2019-05-20T23:37:53.902Z,37.50
2019-05-20T23:40:21.892Z,40.40
2019-05-20T23:42:49.821Z,33.50
2019-05-20T23:45:17.937Z,32.73
2019-05-20T23:47:45.956Z,36.93
2019-05-20T23:50:14.078Z,31.67
2019-05-20T23:52:42.221Z,32.37
2019-05-20T23:55:10.288Z,34.37
2019-05-20T23:57:38.271Z,37.17
